DW4153 Weather Reports


time (UTC)temp
C
wind
direction
speed
KPH
gust
KPH
rain 1hr
cm
rain 24hr
cm
rain mn
cm
humidity
%
barometer
mb
20190820225037 12 267 0.0 0.0 0.00 2.01 0.00 96 1023.5
20190820222034 12 267 0.0 0.0 0.00 2.01 0.00 95 1023.3
20190820215031 13 266 0.0 0.0 0.00 2.01 0.41 95 1023.0
20190820212036 12 267 0.0 0.0 0.00 2.01 0.41 94 1022.9
20190820205034 13 267 0.0 0.0 0.00 2.01 0.41 94 1022.5
20190820202030 13 267 0.0 0.0 0.00 2.01 0.41 94 1022.5
20190820195029 14 271 0.0 1.6 0.99 2.01 0.41 93 1022.4
20190820192026 14 121 0.0 1.6 2.01 2.01 0.41 92 1022.3
20190820185040 15 270 4.8 12.9 0.99 0.99 0.20 89 1022.8
20190820182037 16 281 4.8 12.9 0.00 0.00 0.00 79 1021.7
20190820175034 18 240 0.0 0.0 0.00 0.00 0.00 63 1020.7
20190820165045 20 211 0.0 4.8 0.00 0.00 0.00 59 1020.7
20190820162039 21 263 1.6 9.7 0.00 0.00 0.00 54 1020.7
20190820155032 21 259 1.6 8.0 0.00 0.00 0.00 57 1020.5
20190820152029 21 224 4.8 9.7 0.00 0.00 0.00 58 1020.4
20190820145027 19 224 1.6 3.2 0.00 0.00 0.00 68 1020.5
20190820142040 18 259 0.0 4.8 0.00 0.00 0.00 66 1020.4
20190820135039 21 207 3.2 8.0 0.00 0.00 0.00 58 1020.2
20190820132037 21 236 8.0 12.9 0.00 0.00 0.00 55 1020.3
20190820125032 22 177 4.8 11.3 0.00 0.00 0.00 53 1019.9
20190820122026 22 221 8.0 12.9 0.00 0.00 0.00 56 1019.8
20190820115025 22 186 9.7 14.5 0.00 0.00 0.00 58 1019.9
20190820112040 21 159 9.7 16.1 0.00 0.00 0.00 58 1020.0
20190820105040 21 226 6.4 16.1 0.00 0.00 0.00 61 1019.8
20190820102034 21 148 3.2 11.3 0.00 0.00 0.00 60 1019.7
20190820095030 20 216 9.7 16.1 0.00 0.00 0.00 61 1020.0
20190820092026 20 202 8.0 17.7 0.00 0.00 0.00 63 1020.1
20190820085025 19 172 8.0 17.7 0.00 0.00 0.00 68 1019.7
20190820082024 18 155 6.4 12.9 0.00 0.00 0.00 71 1019.6
20190820075043 18 191 4.8 12.9 0.00 0.00 0.00 72 1019.5
20190820072042 17 140 8.0 12.9 0.00 0.00 0.00 76 1019.4
20190820065039 16 217 3.2 11.3 0.00 0.00 0.00 80 1019.0
20190820062038 14 165 3.2 8.0 0.00 0.00 0.00 85 1018.9
20190820055037 13 179 4.8 11.3 0.00 0.00 0.00 89 1018.6
20190820052038 12 161 1.6 6.4 0.00 0.00 0.00 91 1018.4
20190820045033 11 206 0.0 3.2 0.00 0.00 0.00 92 1018.3
20190820042032 11 200 0.0 3.2 0.00 0.00 0.00 92 1018.1
20190820035030 11 203 0.0 0.0 0.00 0.00 0.00 91 1017.9
20190820032025 12 191 0.0 1.6 0.00 0.00 0.00 90 1017.9
20190820025041 12 168 1.6 4.8 0.00 0.00 0.00 90 1017.7
20190820022041 12 146 1.6 3.2 0.00 0.00 0.00 92 1017.9
20190820015040 11 182 0.0 0.0 0.00 0.00 0.00 95 1017.7
20190820012038 11 167 0.0 0.0 0.00 0.00 0.00 95 1017.5
20190820005031 11 167 0.0 0.0 0.00 0.00 0.00 94 1017.3
20190820002028 10 167 0.0 0.0 0.00 0.00 0.00 93 1017.3
20190819235028 11 167 0.0 0.0 0.00 0.00 0.00 92 1017.3
20190819232028 11 168 0.0 0.0 0.00 0.00 0.00 93 1017.2